createdAt,value
2017-04-23T00:00:19.565Z,24.45
2017-04-23T00:01:22.528Z,24.50
2017-04-23T00:02:24.928Z,24.50
2017-04-23T00:03:27.327Z,24.42
2017-04-23T00:04:29.712Z,24.43
2017-04-23T00:05:32.107Z,24.42
2017-04-23T00:06:35.097Z,24.43
2017-04-23T00:07:37.498Z,24.39
2017-04-23T00:08:39.887Z,24.39
2017-04-23T00:09:42.286Z,24.35
2017-04-23T00:10:44.686Z,24.30
2017-04-23T00:11:47.673Z,24.33
2017-04-23T00:12:50.045Z,24.24
2017-04-23T00:13:52.444Z,24.24
2017-04-23T00:14:54.835Z,24.24
2017-04-23T00:15:57.222Z,24.21
2017-04-23T00:17:00.313Z,24.21
2017-04-23T00:18:02.706Z,24.20
2017-04-23T00:19:05.094Z,24.18
2017-04-23T00:20:07.485Z,24.14
2017-04-23T00:21:09.872Z,24.21
2017-04-23T00:22:12.863Z,24.23
2017-04-23T00:23:15.259Z,24.17
2017-04-23T00:24:17.669Z,24.24
2017-04-23T00:25:20.044Z,24.23
2017-04-23T00:26:22.432Z,24.14
2017-04-23T00:27:25.426Z,24.17
2017-04-23T00:28:27.811Z,24.13
2017-04-23T00:29:30.220Z,24.02
2017-04-23T00:30:32.600Z,24.02
2017-04-23T00:31:34.972Z,24.06
2017-04-23T00:32:37.971Z,24.10
2017-04-23T00:33:40.363Z,23.98
2017-04-23T00:34:42.757Z,23.96
2017-04-23T00:35:45.171Z,23.96
2017-04-23T00:36:47.540Z,23.95
2017-04-23T00:37:50.530Z,24.02
2017-04-23T00:38:52.923Z,23.93
2017-04-23T00:39:55.307Z,23.92
2017-04-23T00:40:57.708Z,23.93
2017-04-23T00:42:00.105Z,23.84
2017-04-23T00:43:03.102Z,23.91
2017-04-23T00:44:05.490Z,23.81
2017-04-23T00:45:07.894Z,23.80
2017-04-23T00:46:10.274Z,23.77
2017-04-23T00:47:12.668Z,23.76
2017-04-23T00:48:15.666Z,23.80
2017-04-23T00:49:18.057Z,23.73
2017-04-23T00:50:20.449Z,23.71
2017-04-23T00:51:22.852Z,23.69
2017-04-23T00:52:25.241Z,23.71
2017-04-23T00:53:28.231Z,23.69
2017-04-23T00:54:30.626Z,23.76
2017-04-23T00:55:33.012Z,23.68
2017-04-23T00:56:35.385Z,23.66
2017-04-23T00:57:37.781Z,23.74
2017-04-23T00:58:40.780Z,23.73
2017-04-23T00:59:43.168Z,23.68
2017-04-23T01:00:45.552Z,23.68
2017-04-23T01:01:47.936Z,23.68
2017-04-23T01:02:50.326Z,23.71
2017-04-23T01:03:53.315Z,23.69
2017-04-23T01:04:55.717Z,23.69
2017-04-23T01:05:58.106Z,23.74
2017-04-23T01:07:00.497Z,23.63
2017-04-23T01:08:02.885Z,23.62
2017-04-23T01:09:05.875Z,23.63
2017-04-23T01:10:08.236Z,23.71
2017-04-23T01:11:10.619Z,23.58
2017-04-23T01:12:13.023Z,23.74
2017-04-23T01:13:15.384Z,23.62
2017-04-23T01:14:18.374Z,23.41
2017-04-23T01:15:20.761Z,23.56
2017-04-23T01:16:23.140Z,23.55
2017-04-23T01:17:25.514Z,23.51
2017-04-23T01:18:27.902Z,23.51
2017-04-23T01:19:30.913Z,23.61
2017-04-23T01:20:33.299Z,23.65
2017-04-23T01:21:35.691Z,23.69
2017-04-23T01:22:38.074Z,23.73
2017-04-23T01:23:40.463Z,23.74
2017-04-23T01:24:43.451Z,23.81
2017-04-23T01:25:45.853Z,23.80
2017-04-23T01:26:48.237Z,23.68
2017-04-23T01:27:50.632Z,23.76
2017-04-23T01:28:53.019Z,23.66
2017-04-23T01:29:56.019Z,23.76
2017-04-23T01:30:58.410Z,23.68
2017-04-23T01:32:00.794Z,23.59
2017-04-23T01:33:03.185Z,23.54
2017-04-23T01:34:05.559Z,23.55
2017-04-23T01:35:08.543Z,23.51
2017-04-23T01:36:10.901Z,23.55
2017-04-23T01:37:13.285Z,23.61
2017-04-23T01:38:15.680Z,23.51
2017-04-23T01:39:18.062Z,23.47
2017-04-23T01:40:21.061Z,23.47
2017-04-23T01:41:23.449Z,23.62
2017-04-23T01:42:25.830Z,23.55
2017-04-23T01:43:28.214Z,23.44
2017-04-23T01:44:30.601Z,23.41
2017-04-23T01:45:33.587Z,23.50
2017-04-23T01:46:35.972Z,23.36
2017-04-23T01:47:38.363Z,23.40
2017-04-23T01:48:40.740Z,23.37
2017-04-23T01:49:43.130Z,23.40
2017-04-23T01:50:46.102Z,23.27
2017-04-23T01:51:48.501Z,23.24
2017-04-23T01:52:51.094Z,23.32
2017-04-23T01:53:53.489Z,23.28
2017-04-23T01:54:55.882Z,23.27
2017-04-23T01:55:58.813Z,23.36
2017-04-23T01:57:01.198Z,23.25
2017-04-23T01:58:03.577Z,23.24
2017-04-23T01:59:05.953Z,23.34
2017-04-23T02:00:08.344Z,23.27
2017-04-23T02:01:11.325Z,23.25
2017-04-23T02:02:13.711Z,23.28
2017-04-23T02:03:16.086Z,23.23
2017-04-23T02:04:18.481Z,23.20
2017-04-23T02:05:20.882Z,23.20
2017-04-23T02:06:23.866Z,23.18
2017-04-23T02:07:26.244Z,23.15
2017-04-23T02:08:28.649Z,23.06
2017-04-23T02:09:31.036Z,23.08
2017-04-23T02:10:33.437Z,23.05
2017-04-23T02:11:36.409Z,23.10
2017-04-23T02:12:38.804Z,23.15
2017-04-23T02:13:41.210Z,23.10
2017-04-23T02:14:43.579Z,23.10
2017-04-23T02:15:45.972Z,23.12
2017-04-23T02:16:48.943Z,23.15
2017-04-23T02:17:51.331Z,23.09
2017-04-23T02:18:53.704Z,23.10
2017-04-23T02:19:56.073Z,23.10
2017-04-23T02:20:58.472Z,23.13
2017-04-23T02:22:01.462Z,23.13
2017-04-23T02:23:03.851Z,23.06
2017-04-23T02:24:06.241Z,23.13
2017-04-23T02:25:08.630Z,23.13
2017-04-23T02:26:11.020Z,23.03
2017-04-23T02:27:14.011Z,23.05
2017-04-23T02:28:16.367Z,23.03
2017-04-23T02:29:18.759Z,22.99
2017-04-23T02:30:21.160Z,22.94
2017-04-23T02:31:23.549Z,23.05
2017-04-23T02:32:26.532Z,23.03
2017-04-23T02:33:28.923Z,23.05
2017-04-23T02:34:31.320Z,23.06
2017-04-23T02:35:33.711Z,23.09
2017-04-23T02:36:36.099Z,23.09
2017-04-23T02:37:39.090Z,23.05
2017-04-23T02:38:41.473Z,23.06
2017-04-23T02:39:43.868Z,23.06
2017-04-23T02:40:46.260Z,22.99
2017-04-23T02:41:48.656Z,23.09
2017-04-23T02:42:51.641Z,23.09
2017-04-23T02:43:54.050Z,23.00
2017-04-23T02:44:56.422Z,23.02
2017-04-23T02:45:58.827Z,22.94
2017-04-23T02:47:01.217Z,22.98
2017-04-23T02:48:04.211Z,23.00
2017-04-23T02:49:06.604Z,22.96
2017-04-23T02:50:08.994Z,23.02
2017-04-23T02:51:11.394Z,22.99
2017-04-23T02:52:13.788Z,22.94
2017-04-23T02:53:16.791Z,23.06
2017-04-23T02:54:19.180Z,22.96
2017-04-23T02:55:21.565Z,22.96
2017-04-23T02:56:23.968Z,22.96
2017-04-23T02:57:26.356Z,22.98
2017-04-23T02:58:29.337Z,22.99
2017-04-23T02:59:31.727Z,23.03
2017-04-23T03:00:34.127Z,23.00
2017-04-23T03:01:36.510Z,22.99
2017-04-23T03:02:38.898Z,22.96
2017-04-23T03:03:41.887Z,22.96
2017-04-23T03:04:44.277Z,23.00
2017-04-23T03:05:46.673Z,22.98
2017-04-23T03:06:49.037Z,23.00
2017-04-23T03:07:51.430Z,23.02
2017-04-23T03:08:54.424Z,23.03
2017-04-23T03:09:56.812Z,23.05
2017-04-23T03:10:59.201Z,23.02
2017-04-23T03:12:01.603Z,23.06
2017-04-23T03:13:03.985Z,22.96
2017-04-23T03:14:06.986Z,22.99
2017-04-23T03:15:09.375Z,23.06
2017-04-23T03:16:11.774Z,23.05
2017-04-23T03:17:14.152Z,22.98
2017-04-23T03:18:16.553Z,22.93
2017-04-23T03:19:19.526Z,22.93
2017-04-23T03:20:21.897Z,22.96
2017-04-23T03:21:24.284Z,23.05
2017-04-23T03:22:26.677Z,22.99
2017-04-23T03:23:29.078Z,22.94
2017-04-23T03:24:32.073Z,22.98
2017-04-23T03:25:34.465Z,22.94
2017-04-23T03:26:36.838Z,23.02
2017-04-23T03:27:39.231Z,22.96
2017-04-23T03:28:41.608Z,22.96
2017-04-23T03:29:44.549Z,22.98
2017-04-23T03:30:46.941Z,23.00
2017-04-23T03:31:49.311Z,23.03
2017-04-23T03:32:51.701Z,22.98
2017-04-23T03:33:54.058Z,22.93
2017-04-23T03:34:57.040Z,22.99
2017-04-23T03:35:59.423Z,23.00
2017-04-23T03:37:01.812Z,22.98
2017-04-23T03:38:04.185Z,22.96
2017-04-23T03:39:06.565Z,22.99
2017-04-23T03:40:09.556Z,22.99
2017-04-23T03:41:11.928Z,22.96
2017-04-23T03:42:14.322Z,23.03
2017-04-23T03:43:16.695Z,22.94
2017-04-23T03:44:19.084Z,22.90
2017-04-23T03:45:22.053Z,22.91
2017-04-23T03:46:24.428Z,22.88
2017-04-23T03:47:26.819Z,22.84
2017-04-23T03:48:29.225Z,22.85
2017-04-23T03:49:31.597Z,22.84
2017-04-23T03:50:34.594Z,22.83
2017-04-23T03:51:36.955Z,22.88
2017-04-23T03:52:39.346Z,22.81
2017-04-23T03:53:41.718Z,22.84
2017-04-23T03:54:44.088Z,22.83
2017-04-23T03:55:47.083Z,22.78
2017-04-23T03:56:49.471Z,22.85
2017-04-23T03:57:51.850Z,22.83
2017-04-23T03:58:54.245Z,22.83
2017-04-23T03:59:56.623Z,22.83
2017-04-23T04:00:59.667Z,22.88
2017-04-23T04:02:02.021Z,22.81
2017-04-23T04:03:04.382Z,22.87
2017-04-23T04:04:06.751Z,22.85
2017-04-23T04:05:09.148Z,22.85
2017-04-23T04:06:12.110Z,22.88
2017-04-23T04:07:14.504Z,22.90
2017-04-23T04:08:16.863Z,22.98
2017-04-23T04:09:19.238Z,22.90
2017-04-23T04:10:21.591Z,22.90
2017-04-23T04:11:24.570Z,22.94
2017-04-23T04:12:26.928Z,22.84
2017-04-23T04:13:29.325Z,22.93
2017-04-23T04:14:31.890Z,22.90
2017-04-23T04:15:34.265Z,22.98
2017-04-23T04:16:37.212Z,22.88
2017-04-23T04:17:39.594Z,22.90
2017-04-23T04:18:41.964Z,22.91
2017-04-23T04:19:44.343Z,22.88
2017-04-23T04:20:46.698Z,22.90
2017-04-23T04:21:49.697Z,23.00
2017-04-23T04:22:52.090Z,23.02
2017-04-23T04:23:54.478Z,23.00
2017-04-23T04:24:56.863Z,22.91
2017-04-23T04:25:59.220Z,22.94
2017-04-23T04:27:02.143Z,22.98
2017-04-23T04:28:04.516Z,22.90
2017-04-23T04:29:06.908Z,22.90
2017-04-23T04:30:09.264Z,22.93
2017-04-23T04:31:11.664Z,22.85
2017-04-23T04:32:14.639Z,22.85
2017-04-23T04:33:17.012Z,22.93
2017-04-23T04:34:19.400Z,22.83
2017-04-23T04:35:21.787Z,22.83
2017-04-23T04:36:24.160Z,22.76
2017-04-23T04:37:27.150Z,22.84
2017-04-23T04:38:29.524Z,22.81
2017-04-23T04:39:31.921Z,22.76
2017-04-23T04:40:34.299Z,22.75
2017-04-23T04:41:36.686Z,22.69
2017-04-23T04:42:39.612Z,22.72
2017-04-23T04:43:41.999Z,22.68
2017-04-23T04:44:44.399Z,22.68
2017-04-23T04:45:46.783Z,22.60
2017-04-23T04:46:49.174Z,22.60
2017-04-23T04:47:52.159Z,22.57
2017-04-23T04:48:54.551Z,22.65
2017-04-23T04:49:56.923Z,22.54
2017-04-23T04:50:59.294Z,22.62
2017-04-23T04:52:01.661Z,22.59
2017-04-23T04:53:04.572Z,22.51
2017-04-23T04:54:06.963Z,22.59
2017-04-23T04:55:09.324Z,22.44
2017-04-23T04:56:11.706Z,22.53
2017-04-23T04:57:14.085Z,22.54
2017-04-23T04:58:17.053Z,22.39
2017-04-23T04:59:19.447Z,22.50
2017-04-23T05:00:21.805Z,22.44
2017-04-23T05:01:24.199Z,22.50
2017-04-23T05:02:26.559Z,22.44
2017-04-23T05:03:29.541Z,22.41
2017-04-23T05:04:31.917Z,22.44
2017-04-23T05:05:34.302Z,22.45
2017-04-23T05:06:36.681Z,22.36
2017-04-23T05:07:39.056Z,22.47
2017-04-23T05:08:42.023Z,22.33
2017-04-23T05:09:44.402Z,22.43
2017-04-23T05:10:46.765Z,22.36
2017-04-23T05:11:49.132Z,22.41
2017-04-23T05:12:51.499Z,22.38
2017-04-23T05:13:54.453Z,22.35
2017-04-23T05:14:56.841Z,22.39
2017-04-23T05:15:59.221Z,22.41
2017-04-23T05:17:01.607Z,22.38
2017-04-23T05:18:03.970Z,22.50
2017-04-23T05:19:06.945Z,22.47
2017-04-23T05:20:09.317Z,22.47
2017-04-23T05:21:11.705Z,22.48
2017-04-23T05:22:14.073Z,22.48
2017-04-23T05:23:16.462Z,22.54
2017-04-23T05:24:19.451Z,22.60
2017-04-23T05:25:21.809Z,22.55
2017-04-23T05:26:24.197Z,22.62
2017-04-23T05:27:26.600Z,22.55
2017-04-23T05:28:28.976Z,22.57
2017-04-23T05:29:31.970Z,22.62
2017-04-23T05:30:34.338Z,22.60
2017-04-23T05:31:36.743Z,22.59
2017-04-23T05:32:39.110Z,22.55
2017-04-23T05:33:41.503Z,22.57
2017-04-23T05:34:44.409Z,22.57
2017-04-23T05:35:46.773Z,22.55
2017-04-23T05:36:49.140Z,22.55
2017-04-23T05:37:51.500Z,22.55
2017-04-23T05:38:53.874Z,22.51
2017-04-23T05:39:56.858Z,22.54
2017-04-23T05:40:59.217Z,22.41
2017-04-23T05:42:01.589Z,22.44
2017-04-23T05:43:03.970Z,22.44
2017-04-23T05:44:06.325Z,22.48
2017-04-23T05:45:09.288Z,22.50
2017-04-23T05:46:11.676Z,22.44
2017-04-23T05:47:14.056Z,22.44
2017-04-23T05:48:16.444Z,22.35
2017-04-23T05:49:18.823Z,22.39
2017-04-23T05:50:21.791Z,22.36
2017-04-23T05:51:24.155Z,22.43
2017-04-23T05:52:26.515Z,22.38
2017-04-23T05:53:28.882Z,22.41
2017-04-23T05:54:31.279Z,22.38
2017-04-23T05:55:34.239Z,22.25
2017-04-23T05:56:36.604Z,22.22
2017-04-23T05:57:38.964Z,22.28
2017-04-23T05:58:41.337Z,22.32
2017-04-23T05:59:43.693Z,22.30
2017-04-23T06:00:46.598Z,22.35
2017-04-23T06:01:48.955Z,22.25
2017-04-23T06:02:51.313Z,22.33
2017-04-23T06:03:53.672Z,22.26
2017-04-23T06:04:56.032Z,22.26
2017-04-23T06:05:58.943Z,22.29
2017-04-23T06:07:01.321Z,22.35
2017-04-23T06:08:03.690Z,22.30
2017-04-23T06:09:06.053Z,22.30
2017-04-23T06:10:08.403Z,22.29
2017-04-23T06:11:11.383Z,22.28
2017-04-23T06:12:13.743Z,22.25
2017-04-23T06:13:16.098Z,22.32
2017-04-23T06:14:18.455Z,22.29
2017-04-23T06:15:20.815Z,22.28
2017-04-23T06:16:23.720Z,22.25
2017-04-23T06:17:26.085Z,22.26
2017-04-23T06:18:28.444Z,22.36
2017-04-23T06:19:30.806Z,22.36
2017-04-23T06:20:33.166Z,22.35
2017-04-23T06:21:36.083Z,22.33
2017-04-23T06:22:38.442Z,22.36
2017-04-23T06:23:40.811Z,22.47
2017-04-23T06:24:43.171Z,22.39
2017-04-23T06:25:45.546Z,22.43
2017-04-23T06:26:48.500Z,22.44
2017-04-23T06:27:50.872Z,22.38
2017-04-23T06:28:53.223Z,22.44
2017-04-23T06:29:55.580Z,22.44
2017-04-23T06:30:57.942Z,22.45
2017-04-23T06:32:00.847Z,22.44
2017-04-23T06:33:03.215Z,22.51
2017-04-23T06:34:05.580Z,22.50
2017-04-23T06:35:07.938Z,22.43
2017-04-23T06:36:10.299Z,22.60
2017-04-23T06:37:13.209Z,22.59
2017-04-23T06:38:15.568Z,22.65
2017-04-23T06:39:17.922Z,22.62
2017-04-23T06:40:20.278Z,22.70
2017-04-23T06:41:22.638Z,22.73
2017-04-23T06:42:25.544Z,22.68
2017-04-23T06:43:27.909Z,22.60
2017-04-23T06:44:30.271Z,22.54
2017-04-23T06:45:32.625Z,22.51
2017-04-23T06:46:34.987Z,22.47
2017-04-23T06:47:37.956Z,22.48
2017-04-23T06:48:40.309Z,22.60
2017-04-23T06:49:42.669Z,22.66
2017-04-23T06:50:45.036Z,22.65
2017-04-23T06:51:47.396Z,22.73
2017-04-23T06:52:50.299Z,22.84
2017-04-23T06:53:52.667Z,22.84
2017-04-23T06:54:55.015Z,22.80
2017-04-23T06:55:57.385Z,22.75
2017-04-23T06:56:59.738Z,22.83
2017-04-23T06:58:02.657Z,22.80
2017-04-23T06:59:05.021Z,22.87
2017-04-23T07:00:07.398Z,22.78
2017-04-23T07:01:09.755Z,22.66
2017-04-23T07:02:12.116Z,22.68
2017-04-23T07:03:15.030Z,22.65
2017-04-23T07:04:17.391Z,22.70
2017-04-23T07:05:19.756Z,22.84
2017-04-23T07:06:22.107Z,22.83
2017-04-23T07:07:24.465Z,22.83
2017-04-23T07:08:27.431Z,22.81
2017-04-23T07:09:29.794Z,22.84
2017-04-23T07:10:32.150Z,23.02
2017-04-23T07:11:34.514Z,22.98
2017-04-23T07:12:36.878Z,23.02
2017-04-23T07:13:39.785Z,22.94
2017-04-23T07:14:42.144Z,22.96
2017-04-23T07:15:44.501Z,22.96
2017-04-23T07:16:46.860Z,23.00
2017-04-23T07:17:49.225Z,22.94
2017-04-23T07:18:52.182Z,22.96
2017-04-23T07:19:54.547Z,22.96
2017-04-23T07:20:56.915Z,22.94
2017-04-23T07:21:59.273Z,23.02
2017-04-23T07:23:01.637Z,23.03
2017-04-23T07:24:04.545Z,23.02
2017-04-23T07:25:06.920Z,23.17
2017-04-23T07:26:09.277Z,23.09
2017-04-23T07:27:11.635Z,23.02
2017-04-23T07:28:13.998Z,23.15
2017-04-23T07:29:16.960Z,23.06
2017-04-23T07:30:19.320Z,23.10
2017-04-23T07:31:21.685Z,23.08
2017-04-23T07:32:24.044Z,23.08
2017-04-23T07:33:26.411Z,23.17
2017-04-23T07:34:29.329Z,23.02
2017-04-23T07:35:31.689Z,22.98
2017-04-23T07:36:34.049Z,23.03
2017-04-23T07:37:36.409Z,23.05
2017-04-23T07:38:38.782Z,23.05
2017-04-23T07:39:41.690Z,23.06
2017-04-23T07:40:44.048Z,23.06
2017-04-23T07:41:46.409Z,23.02
2017-04-23T07:42:48.766Z,22.98
2017-04-23T07:43:51.136Z,23.00
2017-04-23T07:44:54.053Z,23.09
2017-04-23T07:45:56.409Z,23.10
2017-04-23T07:46:58.773Z,23.18
2017-04-23T07:48:01.128Z,23.09
2017-04-23T07:49:03.487Z,23.08
2017-04-23T07:50:06.460Z,23.08
2017-04-23T07:51:08.825Z,23.09
2017-04-23T07:52:11.189Z,23.10
2017-04-23T07:53:13.544Z,23.09
2017-04-23T07:54:15.909Z,23.13
2017-04-23T07:55:18.868Z,23.21
2017-04-23T07:56:21.232Z,23.20
2017-04-23T07:57:23.604Z,23.24
2017-04-23T07:58:25.957Z,23.24
2017-04-23T07:59:28.332Z,23.21
2017-04-23T08:00:31.297Z,23.24
2017-04-23T08:01:33.666Z,23.24
2017-04-23T08:02:36.016Z,23.25
2017-04-23T08:03:38.382Z,23.17
2017-04-23T08:04:40.737Z,23.21
2017-04-23T08:05:43.706Z,23.15
2017-04-23T08:06:46.063Z,23.20
2017-04-23T08:07:48.448Z,23.15
2017-04-23T08:08:50.793Z,23.23
2017-04-23T08:09:53.156Z,23.31
2017-04-23T08:10:56.109Z,23.17
2017-04-23T08:11:58.465Z,23.21
2017-04-23T08:13:00.818Z,23.15
2017-04-23T08:14:03.180Z,23.18
2017-04-23T08:15:05.557Z,23.17
2017-04-23T08:16:08.462Z,23.20
2017-04-23T08:17:10.820Z,23.15
2017-04-23T08:18:13.171Z,23.25
2017-04-23T08:19:15.532Z,23.31
2017-04-23T08:20:17.894Z,23.36
2017-04-23T08:21:20.807Z,23.32
2017-04-23T08:22:23.167Z,23.28
2017-04-23T08:23:25.519Z,23.25
2017-04-23T08:24:27.880Z,23.25
2017-04-23T08:25:30.234Z,23.21
2017-04-23T08:26:33.190Z,23.27
2017-04-23T08:27:35.553Z,23.25
2017-04-23T08:28:37.910Z,23.24
2017-04-23T08:29:40.271Z,23.23
2017-04-23T08:30:42.631Z,23.20
2017-04-23T08:31:45.543Z,23.24
2017-04-23T08:32:47.911Z,23.27
2017-04-23T08:33:50.275Z,23.17
2017-04-23T08:34:52.627Z,23.12
2017-04-23T08:35:55.010Z,23.15
2017-04-23T08:36:57.949Z,23.21
2017-04-23T08:38:00.309Z,23.28
2017-04-23T08:39:02.668Z,23.25
2017-04-23T08:40:05.022Z,23.23
2017-04-23T08:41:07.384Z,23.28
2017-04-23T08:42:10.295Z,23.23
2017-04-23T08:43:12.664Z,23.17
2017-04-23T08:44:15.022Z,23.17
2017-04-23T08:45:17.376Z,23.10
2017-04-23T08:46:19.737Z,23.08
2017-04-23T08:47:22.696Z,23.09
2017-04-23T08:48:25.059Z,23.06
2017-04-23T08:49:27.415Z,23.12
2017-04-23T08:50:29.774Z,23.12
2017-04-23T08:51:32.136Z,23.06
2017-04-23T08:52:35.151Z,23.06
2017-04-23T08:53:37.513Z,23.13
2017-04-23T08:54:39.872Z,23.15
2017-04-23T08:55:42.226Z,23.09
2017-04-23T08:56:44.580Z,23.08
2017-04-23T08:57:47.498Z,23.08
2017-04-23T08:58:49.865Z,23.23
2017-04-23T09:02:22.085Z,23.20
2017-04-23T09:03:25.048Z,23.17
2017-04-23T09:04:27.406Z,23.17
2017-04-23T09:05:29.771Z,23.15
2017-04-23T09:06:32.131Z,23.15
2017-04-23T09:07:34.494Z,23.12
2017-04-23T09:08:37.450Z,23.21
2017-04-23T09:09:39.805Z,23.17
2017-04-23T09:10:42.169Z,23.17
2017-04-23T09:11:44.524Z,23.15
2017-04-23T09:12:46.890Z,23.21
2017-04-23T09:13:49.795Z,23.15
2017-04-23T09:14:52.166Z,23.17
2017-04-23T09:15:54.526Z,23.13
2017-04-23T09:16:56.899Z,23.13
2017-04-23T09:17:59.254Z,23.10
2017-04-23T09:19:02.226Z,23.10
2017-04-23T09:20:04.590Z,23.12
2017-04-23T09:21:06.955Z,23.10
2017-04-23T09:22:09.311Z,23.08
2017-04-23T09:23:11.672Z,23.08
2017-04-23T09:24:14.635Z,23.12
2017-04-23T09:25:17.204Z,23.10
2017-04-23T09:26:19.561Z,23.09
2017-04-23T09:27:22.128Z,23.12
2017-04-23T09:28:24.486Z,23.09
2017-04-23T09:29:27.446Z,23.12
2017-04-23T09:30:29.805Z,23.12
2017-04-23T09:31:32.163Z,23.08
2017-04-23T09:32:34.522Z,23.09
2017-04-23T09:33:36.882Z,23.13
2017-04-23T09:34:39.789Z,23.06
2017-04-23T09:35:42.150Z,23.13
2017-04-23T09:36:44.508Z,23.06
2017-04-23T09:37:46.868Z,23.05
2017-04-23T09:38:49.228Z,23.00
2017-04-23T09:39:52.185Z,23.08
2017-04-23T09:40:54.553Z,23.05
2017-04-23T09:41:56.905Z,23.08
2017-04-23T09:42:59.269Z,23.06
2017-04-23T09:44:01.632Z,22.96
2017-04-23T09:45:04.537Z,23.09
2017-04-23T09:46:06.907Z,22.96
2017-04-23T09:47:09.266Z,22.98
2017-04-23T09:48:11.631Z,22.96
2017-04-23T09:49:13.985Z,22.99
2017-04-23T09:50:16.949Z,22.94
2017-04-23T09:51:19.317Z,22.94
2017-04-23T09:52:21.674Z,23.08
2017-04-23T09:53:24.047Z,22.98
2017-04-23T09:54:26.396Z,22.99
2017-04-23T09:55:29.305Z,23.03
2017-04-23T09:56:31.665Z,22.99
2017-04-23T09:57:34.016Z,23.00
2017-04-23T09:58:36.392Z,23.00
2017-04-23T09:59:38.744Z,22.98
2017-04-23T10:00:41.659Z,23.03
2017-04-23T10:01:44.014Z,22.96
2017-04-23T10:02:46.376Z,22.93
2017-04-23T10:03:48.738Z,22.98
2017-04-23T10:04:51.099Z,22.99
2017-04-23T10:05:54.251Z,23.00
2017-04-23T10:06:56.631Z,22.98
2017-04-23T10:07:58.985Z,22.99
2017-04-23T10:09:01.354Z,22.98
2017-04-23T10:10:03.714Z,22.98
2017-04-23T10:11:06.634Z,22.98
2017-04-23T10:12:08.993Z,22.99
2017-04-23T10:13:11.356Z,22.94
2017-04-23T10:14:13.716Z,22.98
2017-04-23T10:15:16.075Z,22.96
2017-04-23T10:16:18.995Z,22.98
2017-04-23T10:17:21.346Z,22.94
2017-04-23T10:18:23.703Z,23.02
2017-04-23T10:19:26.061Z,22.99
2017-04-23T10:20:28.623Z,22.93
2017-04-23T10:21:31.777Z,22.91
2017-04-23T10:22:34.137Z,22.93
2017-04-23T10:23:36.510Z,23.02
2017-04-23T10:24:38.872Z,23.02
2017-04-23T10:25:41.244Z,23.02
2017-04-23T10:26:44.185Z,22.99
2017-04-23T10:27:46.543Z,22.99
2017-04-23T10:28:48.903Z,22.94
2017-04-23T10:29:51.258Z,22.93
2017-04-23T10:30:53.621Z,22.91
2017-04-23T10:31:56.532Z,22.90
2017-04-23T10:32:58.887Z,22.85
2017-04-23T10:34:01.248Z,22.93
2017-04-23T10:35:03.612Z,22.91
2017-04-23T10:36:05.998Z,22.91
2017-04-23T10:37:08.902Z,23.03
2017-04-23T10:38:11.253Z,22.94
2017-04-23T10:39:13.617Z,22.96
2017-04-23T10:40:15.980Z,22.99
2017-04-23T10:41:18.332Z,22.96
2017-04-23T10:42:21.292Z,22.99
2017-04-23T10:43:23.662Z,22.94
2017-04-23T10:44:26.019Z,22.96
2017-04-23T10:45:28.387Z,22.93
2017-04-23T10:46:30.747Z,23.03
2017-04-23T10:47:33.707Z,22.91
2017-04-23T10:48:36.066Z,23.00
2017-04-23T10:49:38.428Z,22.90
2017-04-23T10:50:40.791Z,22.91
2017-04-23T10:51:43.145Z,22.93
2017-04-23T10:52:46.106Z,22.96
2017-04-23T10:53:48.468Z,22.94
2017-04-23T10:54:50.842Z,22.91
2017-04-23T10:55:53.199Z,23.02
2017-04-23T10:56:55.548Z,22.96
2017-04-23T10:57:58.508Z,23.02
2017-04-23T10:59:00.874Z,22.94
2017-04-23T11:00:03.235Z,22.98
2017-04-23T11:01:05.588Z,22.91
2017-04-23T11:02:07.946Z,22.90
2017-04-23T11:03:10.858Z,22.87
2017-04-23T11:04:13.219Z,22.93
2017-04-23T11:05:15.587Z,22.91
2017-04-23T11:06:17.949Z,22.87
2017-04-23T11:07:20.307Z,22.83
2017-04-23T11:08:23.263Z,22.84
2017-04-23T11:09:25.622Z,22.81
2017-04-23T11:10:28.196Z,22.88
2017-04-23T11:11:30.555Z,22.93
2017-04-23T11:12:32.921Z,22.93
2017-04-23T11:13:35.882Z,22.87
2017-04-23T11:14:38.241Z,22.90
2017-04-23T11:15:40.604Z,22.84
2017-04-23T11:16:42.958Z,22.90
2017-04-23T11:17:45.312Z,22.84
2017-04-23T11:18:48.276Z,22.93
2017-04-23T11:19:50.635Z,22.93
2017-04-23T11:20:52.997Z,22.80
2017-04-23T11:21:55.361Z,22.88
2017-04-23T11:22:57.725Z,22.91
2017-04-23T11:24:00.695Z,22.90
2017-04-23T11:25:03.049Z,22.91
2017-04-23T11:26:05.408Z,22.94
2017-04-23T11:27:07.776Z,23.02
2017-04-23T11:28:10.128Z,23.03
2017-04-23T11:29:13.040Z,22.93
2017-04-23T11:30:15.401Z,22.94
2017-04-23T11:31:17.764Z,22.94
2017-04-23T11:32:20.122Z,22.94
2017-04-23T11:33:22.478Z,22.96
2017-04-23T11:34:25.444Z,23.00
2017-04-23T11:35:27.809Z,22.98
2017-04-23T11:36:30.164Z,22.99
2017-04-23T11:37:32.523Z,22.99
2017-04-23T11:38:34.888Z,22.98
2017-04-23T11:39:37.812Z,22.99
2017-04-23T11:40:40.161Z,22.96
2017-04-23T11:41:42.520Z,22.96
2017-04-23T11:42:44.890Z,22.99
2017-04-23T11:43:47.259Z,22.94
2017-04-23T11:44:50.169Z,22.98
2017-04-23T11:45:52.532Z,22.96
2017-04-23T11:46:54.890Z,22.96
2017-04-23T11:47:57.261Z,23.12
2017-04-23T11:48:59.625Z,22.96
2017-04-23T11:50:02.580Z,22.98
2017-04-23T11:51:04.943Z,22.98
2017-04-23T11:52:07.311Z,22.94
2017-04-23T11:53:09.677Z,22.91
2017-04-23T11:54:12.043Z,22.98
2017-04-23T11:55:14.960Z,22.93
2017-04-23T11:56:17.324Z,23.03
2017-04-23T11:57:19.690Z,22.96
2017-04-23T11:58:22.056Z,23.05
2017-04-23T11:59:24.415Z,23.09
2017-04-23T12:00:27.329Z,23.03
2017-04-23T12:01:29.693Z,23.05
2017-04-23T12:02:32.054Z,23.06
2017-04-23T12:03:34.423Z,23.12
2017-04-23T12:04:36.786Z,23.08
2017-04-23T12:05:39.746Z,23.10
2017-04-23T12:06:42.108Z,23.05
2017-04-23T12:07:44.474Z,23.09
2017-04-23T12:08:46.833Z,23.09
2017-04-23T12:09:49.193Z,23.12
2017-04-23T12:10:52.155Z,23.08
2017-04-23T12:11:54.515Z,23.10
2017-04-23T12:12:56.889Z,23.13
2017-04-23T12:13:59.263Z,23.09
2017-04-23T12:15:01.619Z,23.08
2017-04-23T12:16:04.598Z,23.09
2017-04-23T12:17:07.161Z,23.15
2017-04-23T12:18:09.537Z,23.21
2017-04-23T12:19:11.905Z,23.18
2017-04-23T12:20:14.265Z,23.18
2017-04-23T12:21:17.179Z,23.13
2017-04-23T12:22:19.543Z,23.17
2017-04-23T12:23:21.911Z,23.20
2017-04-23T12:24:24.274Z,23.21
2017-04-23T12:25:26.644Z,23.24
2017-04-23T12:26:29.603Z,23.27
2017-04-23T12:27:31.974Z,23.32
2017-04-23T12:28:34.339Z,23.34
2017-04-23T12:29:36.714Z,23.36
2017-04-23T12:30:39.070Z,23.32
2017-04-23T12:31:42.032Z,23.39
2017-04-23T12:32:44.396Z,23.43
2017-04-23T12:33:46.767Z,23.48
2017-04-23T12:34:49.139Z,23.54
2017-04-23T12:35:51.501Z,23.44
2017-04-23T12:36:54.491Z,23.55
2017-04-23T12:37:56.855Z,23.55
2017-04-23T12:38:59.209Z,23.55
2017-04-23T12:40:01.578Z,23.62
2017-04-23T12:41:03.959Z,23.58
2017-04-23T12:42:06.923Z,23.62
2017-04-23T12:43:09.296Z,23.73
2017-04-23T12:44:11.663Z,23.69
2017-04-23T12:45:14.021Z,23.69
2017-04-23T12:46:16.437Z,23.63
2017-04-23T12:47:19.365Z,23.71
2017-04-23T12:48:21.758Z,23.71
2017-04-23T12:49:24.141Z,23.74
2017-04-23T12:50:26.454Z,23.81
2017-04-23T12:51:28.821Z,23.78
2017-04-23T12:52:31.824Z,23.88
2017-04-23T12:53:34.148Z,23.87
2017-04-23T12:54:36.535Z,23.96
2017-04-23T12:55:38.890Z,23.96
2017-04-23T12:56:41.252Z,24.01
2017-04-23T12:57:44.249Z,24.02
2017-04-23T12:58:46.648Z,24.08
2017-04-23T12:59:48.967Z,24.08
2017-04-23T13:00:51.354Z,24.17
2017-04-23T13:01:53.690Z,24.20
2017-04-23T13:02:56.649Z,24.11
2017-04-23T13:03:59.044Z,24.16
2017-04-23T13:05:01.415Z,24.23
2017-04-23T13:06:03.772Z,24.32
2017-04-23T13:07:06.144Z,24.28
2017-04-23T13:08:09.115Z,24.33
2017-04-23T13:09:11.476Z,24.38
2017-04-23T13:10:13.845Z,24.54
2017-04-23T13:11:16.216Z,24.45
2017-04-23T13:12:18.580Z,24.53
2017-04-23T13:13:21.548Z,24.54
2017-04-23T13:14:23.938Z,24.57
2017-04-23T13:15:26.292Z,24.58
2017-04-23T13:16:28.671Z,24.65
2017-04-23T13:17:31.109Z,24.47
2017-04-23T13:18:34.021Z,24.55
2017-04-23T13:19:36.395Z,24.69
2017-04-23T13:20:38.738Z,24.70
2017-04-23T13:21:41.097Z,24.78
2017-04-23T13:22:43.493Z,24.77
2017-04-23T13:23:46.396Z,24.78
2017-04-23T13:24:48.755Z,24.85
2017-04-23T13:25:51.128Z,24.88
2017-04-23T13:26:53.526Z,24.86